sensor_id;sensor_type;location;lat;lon;timestamp;P1;durP1;ratioP1;P2;durP2;ratioP2
81209;SDS011;70685;52.496;13.420;2023-06-22T08:55:14;3.47;;;3.22;;
81209;SDS011;70685;52.496;13.420;2023-06-22T08:57:40;4.15;;;3.00;;
81209;SDS011;70685;52.496;13.420;2023-06-22T09:00:06;4.32;;;3.92;;
81209;SDS011;70685;52.496;13.420;2023-06-22T09:02:44;4.32;;;3.08;;
81209;SDS011;70685;52.496;13.420;2023-06-22T09:05:11;3.85;;;3.60;;
81209;SDS011;70685;52.496;13.420;2023-06-22T09:07:36;2.60;;;2.40;;
81209;SDS011;70685;52.496;13.420;2023-06-22T09:10:02;2.63;;;2.40;;
81209;SDS011;70685;52.496;13.420;2023-06-22T09:12:34;3.88;;;2.75;;
81209;SDS011;70685;52.496;13.420;2023-06-22T09:15:01;2.55;;;2.45;;
81209;SDS011;70685;52.496;13.420;2023-06-22T09:17:28;3.72;;;3.42;;
81209;SDS011;70685;52.496;13.420;2023-06-22T09:19:56;2.42;;;2.33;;
81209;SDS011;70685;52.496;13.420;2023-06-22T09:22:22;3.05;;;2.85;;
81209;SDS011;70685;52.496;13.420;2023-06-22T09:24:56;2.67;;;2.42;;
81209;SDS011;70685;52.496;13.420;2023-06-22T09:27:25;3.00;;;2.80;;
81209;SDS011;70685;52.496;13.420;2023-06-22T09:29:50;3.30;;;3.10;;
81209;SDS011;70685;52.496;13.420;2023-06-22T09:32:16;5.60;;;3.05;;
81209;SDS011;70685;52.496;13.420;2023-06-22T09:34:42;3.35;;;3.10;;
81209;SDS011;70685;52.496;13.420;2023-06-22T09:37:08;2.90;;;2.70;;
81209;SDS011;70685;52.496;13.420;2023-06-22T09:39:39;3.13;;;2.92;;
81209;SDS011;70685;52.496;13.420;2023-06-22T09:42:05;3.03;;;2.75;;
81209;SDS011;70685;52.496;13.420;2023-06-22T09:44:31;2.80;;;2.60;;
81209;SDS011;70685;52.496;13.420;2023-06-22T09:46:59;6.65;;;2.72;;
81209;SDS011;70685;52.496;13.420;2023-06-22T09:49:25;3.58;;;3.13;;
81209;SDS011;70685;52.496;13.420;2023-06-22T09:51:51;3.10;;;2.80;;
81209;SDS011;70685;52.496;13.420;2023-06-22T09:54:17;3.47;;;2.33;;
81209;SDS011;70685;52.496;13.420;2023-06-22T09:56:47;3.53;;;3.22;;
81209;SDS011;70685;52.496;13.420;2023-06-22T09:59:13;4.50;;;4.15;;
81209;SDS011;70685;52.496;13.420;2023-06-22T10:04:08;3.00;;;2.80;;
81209;SDS011;70685;52.496;13.420;2023-06-22T10:06:36;5.32;;;3.30;;
81209;SDS011;70685;52.496;13.420;2023-06-22T10:09:05;3.50;;;3.00;;
81209;SDS011;70685;52.496;13.420;2023-06-22T10:11:33;4.00;;;3.53;;
81209;SDS011;70685;52.496;13.420;2023-06-22T10:14:03;3.50;;;3.20;;
81209;SDS011;70685;52.496;13.420;2023-06-22T10:16:31;2.92;;;2.80;;
81209;SDS011;70685;52.496;13.420;2023-06-22T10:19:00;3.17;;;2.97;;
81209;SDS011;70685;52.496;13.420;2023-06-22T10:21:28;2.80;;;2.60;;
81209;SDS011;70685;52.496;13.420;2023-06-22T10:26:22;3.35;;;3.05;;
81209;SDS011;70685;52.496;13.420;2023-06-22T10:28:48;4.53;;;3.42;;
81209;SDS011;70685;52.496;13.420;2023-06-22T10:31:13;5.05;;;3.53;;
81209;SDS011;70685;52.496;13.420;2023-06-22T10:33:41;4.68;;;4.03;;
81209;SDS011;70685;52.496;13.420;2023-06-22T10:36:11;4.80;;;3.60;;
81209;SDS011;70685;52.496;13.420;2023-06-22T10:38:41;4.18;;;3.97;;
81209;SDS011;70685;52.496;13.420;2023-06-22T10:41:09;4.13;;;3.78;;
81209;SDS011;70685;52.496;13.420;2023-06-22T10:43:35;3.40;;;3.10;;
81209;SDS011;70685;52.496;13.420;2023-06-22T10:46:00;2.85;;;2.75;;
81209;SDS011;70685;52.496;13.420;2023-06-22T10:48:28;5.22;;;3.45;;
81209;SDS011;70685;52.496;13.420;2023-06-22T10:50:56;3.90;;;3.70;;
81209;SDS011;70685;52.496;13.420;2023-06-22T10:53:22;8.50;;;7.90;;
81209;SDS011;70685;52.496;13.420;2023-06-22T10:55:48;4.60;;;3.92;;
81209;SDS011;70685;52.496;13.420;2023-06-22T10:58:13;4.70;;;4.35;;
81209;SDS011;70685;52.496;13.420;2023-06-22T11:00:44;3.92;;;3.65;;
81209;SDS011;70685;52.496;13.420;2023-06-22T11:03:10;6.22;;;3.20;;
81209;SDS011;70685;52.496;13.420;2023-06-22T11:05:36;7.30;;;5.43;;
81209;SDS011;70685;52.496;13.420;2023-06-22T11:08:02;5.63;;;3.28;;
81209;SDS011;70685;52.496;13.420;2023-06-22T11:10:28;3.20;;;3.00;;
81209;SDS011;70685;52.496;13.420;2023-06-22T11:12:56;2.55;;;2.45;;
81209;SDS011;70685;52.496;13.420;2023-06-22T11:15:23;2.63;;;2.37;;
81209;SDS011;70685;52.496;13.420;2023-06-22T11:17:53;3.35;;;2.58;;
81209;SDS011;70685;52.496;13.420;2023-06-22T11:20:24;2.80;;;2.60;;
81209;SDS011;70685;52.496;13.420;2023-06-22T11:22:49;3.63;;;3.42;;
81209;SDS011;70685;52.496;13.420;2023-06-22T11:25:15;4.03;;;3.47;;
81209;SDS011;70685;52.496;13.420;2023-06-22T11:27:43;3.10;;;3.00;;
81209;SDS011;70685;52.496;13.420;2023-06-22T11:30:09;4.60;;;2.95;;
81209;SDS011;70685;52.496;13.420;2023-06-22T11:32:37;3.58;;;3.38;;
81209;SDS011;70685;52.496;13.420;2023-06-22T11:35:03;4.97;;;2.70;;
81209;SDS011;70685;52.496;13.420;2023-06-22T11:37:29;3.10;;;2.90;;
81209;SDS011;70685;52.496;13.420;2023-06-22T11:39:55;3.47;;;3.28;;
81209;SDS011;70685;52.496;13.420;2023-06-22T11:42:21;5.20;;;3.25;;
81209;SDS011;70685;52.496;13.420;2023-06-22T11:44:50;5.22;;;4.60;;
81209;SDS011;70685;52.496;13.420;2023-06-22T11:47:20;3.83;;;3.63;;
81209;SDS011;70685;52.496;13.420;2023-06-22T11:49:46;4.40;;;4.00;;
81209;SDS011;70685;52.496;13.420;2023-06-22T11:52:12;3.95;;;3.63;;
81209;SDS011;70685;52.496;13.420;2023-06-22T11:54:37;3.30;;;3.10;;
81209;SDS011;70685;52.496;13.420;2023-06-22T11:57:05;3.58;;;3.38;;
81209;SDS011;70685;52.496;13.420;2023-06-22T11:59:31;4.10;;;3.80;;
81209;SDS011;70685;52.496;13.420;2023-06-22T12:01:57;3.45;;;3.15;;
81209;SDS011;70685;52.496;13.420;2023-06-22T12:04:23;3.00;;;2.80;;
81209;SDS011;70685;52.496;13.420;2023-06-22T12:06:49;9.13;;;3.10;;
81209;SDS011;70685;52.496;13.420;2023-06-22T12:09:14;4.32;;;4.15;;
81209;SDS011;70685;52.496;13.420;2023-06-22T12:11:42;3.10;;;3.00;;
81209;SDS011;70685;52.496;13.420;2023-06-22T12:14:08;3.65;;;3.40;;
81209;SDS011;70685;52.496;13.420;2023-06-22T12:16:33;3.88;;;3.67;;
81209;SDS011;70685;52.496;13.420;2023-06-22T12:18:59;3.63;;;3.20;;
81209;SDS011;70685;52.496;13.420;2023-06-22T12:21:27;3.75;;;3.55;;
81209;SDS011;70685;52.496;13.420;2023-06-22T12:23:54;3.58;;;3.38;;
81209;SDS011;70685;52.496;13.420;2023-06-22T12:26:19;4.78;;;4.40;;
81209;SDS011;70685;52.496;13.420;2023-06-22T12:28:45;3.80;;;3.55;;
81209;SDS011;70685;52.496;13.420;2023-06-22T12:31:12;4.50;;;3.58;;
81209;SDS011;70685;52.496;13.420;2023-06-22T12:33:41;3.33;;;3.13;;
81209;SDS011;70685;52.496;13.420;2023-06-22T12:36:07;4.22;;;3.90;;
81209;SDS011;70685;52.496;13.420;2023-06-22T12:38:35;4.93;;;4.18;;
81209;SDS011;70685;52.496;13.420;2023-06-22T12:41:01;4.68;;;4.28;;
81209;SDS011;70685;52.496;13.420;2023-06-22T12:43:26;3.40;;;3.22;;
81209;SDS011;70685;52.496;13.420;2023-06-22T12:45:52;3.63;;;3.35;;
81209;SDS011;70685;52.496;13.420;2023-06-22T12:48:18;6.88;;;3.95;;
81209;SDS011;70685;52.496;13.420;2023-06-22T12:50:44;6.45;;;4.78;;
81209;SDS011;70685;52.496;13.420;2023-06-22T12:53:13;8.02;;;7.30;;
81209;SDS011;70685;52.496;13.420;2023-06-22T12:55:38;3.38;;;3.22;;
81209;SDS011;70685;52.496;13.420;2023-06-22T13:00:32;4.93;;;4.63;;
81209;SDS011;70685;52.496;13.420;2023-06-22T13:02:57;5.60;;;4.60;;
81209;SDS011;70685;52.496;13.420;2023-06-22T13:05:25;5.40;;;4.93;;
81209;SDS011;70685;52.496;13.420;2023-06-22T13:07:51;4.90;;;4.60;;
81209;SDS011;70685;52.496;13.420;2023-06-22T13:10:18;3.25;;;2.95;;
81209;SDS011;70685;52.496;13.420;2023-06-22T13:12:43;5.07;;;4.78;;
81209;SDS011;70685;52.496;13.420;2023-06-22T13:17:37;4.22;;;4.03;;
81209;SDS011;70685;52.496;13.420;2023-06-22T13:20:05;4.70;;;4.30;;
81209;SDS011;70685;52.496;13.420;2023-06-22T13:22:35;5.82;;;3.60;;
81209;SDS011;70685;52.496;13.420;2023-06-22T13:25:09;4.97;;;4.43;;
81209;SDS011;70685;52.496;13.420;2023-06-22T13:27:41;5.15;;;4.93;;
81209;SDS011;70685;52.496;13.420;2023-06-22T13:30:07;12.50;;;11.27;;
81209;SDS011;70685;52.496;13.420;2023-06-22T13:32:33;16.80;;;15.23;;
81209;SDS011;70685;52.496;13.420;2023-06-22T13:34:59;12.80;;;11.90;;
81209;SDS011;70685;52.496;13.420;2023-06-22T13:37:25;4.93;;;4.63;;
81209;SDS011;70685;52.496;13.420;2023-06-22T13:39:51;10.45;;;9.70;;
81209;SDS011;70685;52.496;13.420;2023-06-22T13:42:17;5.60;;;4.18;;
81209;SDS011;70685;52.496;13.420;2023-06-22T13:44:42;8.77;;;8.25;;
81209;SDS011;70685;52.496;13.420;2023-06-22T13:47:10;3.95;;;3.75;;
81209;SDS011;70685;52.496;13.420;2023-06-22T13:49:36;7.30;;;6.88;;
81209;SDS011;70685;52.496;13.420;2023-06-22T13:52:05;5.68;;;5.20;;
81209;SDS011;70685;52.496;13.420;2023-06-22T13:54:35;6.03;;;5.45;;
81209;SDS011;70685;52.496;13.420;2023-06-22T13:57:01;6.10;;;5.60;;
81209;SDS011;70685;52.496;13.420;2023-06-22T14:01:55;4.90;;;4.28;;
81209;SDS011;70685;52.496;13.420;2023-06-22T14:04:22;5.80;;;5.30;;
81209;SDS011;70685;52.496;13.420;2023-06-22T14:06:51;5.63;;;5.22;;
81209;SDS011;70685;52.496;13.420;2023-06-22T14:09:20;6.30;;;4.88;;
81209;SDS011;70685;52.496;13.420;2023-06-22T14:11:49;5.55;;;4.78;;
81209;SDS011;70685;52.496;13.420;2023-06-22T14:14:15;5.05;;;4.68;;
81209;SDS011;70685;52.496;13.420;2023-06-22T14:16:45;6.97;;;5.93;;
81209;SDS011;70685;52.496;13.420;2023-06-22T14:19:16;4.65;;;4.45;;
81209;SDS011;70685;52.496;13.420;2023-06-22T14:21:43;5.82;;;4.18;;
81209;SDS011;70685;52.496;13.420;2023-06-22T14:24:14;4.20;;;3.83;;
81209;SDS011;70685;52.496;13.420;2023-06-22T14:26:39;5.28;;;4.78;;
81209;SDS011;70685;52.496;13.420;2023-06-22T14:29:07;4.38;;;4.18;;
81209;SDS011;70685;52.496;13.420;2023-06-22T14:31:33;5.15;;;4.70;;
81209;SDS011;70685;52.496;13.420;2023-06-22T14:34:01;3.80;;;3.60;;
81209;SDS011;70685;52.496;13.420;2023-06-22T14:36:28;4.97;;;4.57;;
81209;SDS011;70685;52.496;13.420;2023-06-22T14:38:56;3.88;;;3.67;;
81209;SDS011;70685;52.496;13.420;2023-06-22T14:41:22;8.02;;;5.60;;
81209;SDS011;70685;52.496;13.420;2023-06-22T14:43:47;5.03;;;4.72;;
81209;SDS011;70685;52.496;13.420;2023-06-22T14:46:21;3.60;;;3.40;;
81209;SDS011;70685;52.496;13.420;2023-06-22T14:48:49;4.18;;;3.78;;
81209;SDS011;70685;52.496;13.420;2023-06-22T14:51:15;4.22;;;3.92;;
81209;SDS011;70685;52.496;13.420;2023-06-22T14:53:41;9.57;;;4.43;;
81209;SDS011;70685;52.496;13.420;2023-06-22T14:58:35;4.65;;;4.35;;
81209;SDS011;70685;52.496;13.420;2023-06-22T15:01:01;5.15;;;4.85;;
81209;SDS011;70685;52.496;13.420;2023-06-22T15:03:28;4.38;;;3.97;;
81209;SDS011;70685;52.496;13.420;2023-06-22T15:05:56;4.78;;;4.43;;
81209;SDS011;70685;52.496;13.420;2023-06-22T15:08:23;4.68;;;4.28;;
81209;SDS011;70685;52.496;13.420;2023-06-22T15:10:49;5.38;;;4.95;;
81209;SDS011;70685;52.496;13.420;2023-06-22T15:13:16;5.60;;;5.15;;
81209;SDS011;70685;52.496;13.420;2023-06-22T15:15:45;4.38;;;3.53;;
81209;SDS011;70685;52.496;13.420;2023-06-22T15:18:12;4.55;;;4.15;;
81209;SDS011;70685;52.496;13.420;2023-06-22T15:20:38;4.75;;;4.45;;
81209;SDS011;70685;52.496;13.420;2023-06-22T15:23:06;6.50;;;4.10;;
81209;SDS011;70685;52.496;13.420;2023-06-22T15:25:33;4.90;;;4.53;;
81209;SDS011;70685;52.496;13.420;2023-06-22T15:30:30;4.97;;;4.00;;
81209;SDS011;70685;52.496;13.420;2023-06-22T15:35:21;6.28;;;5.30;;
81209;SDS011;70685;52.496;13.420;2023-06-22T15:37:47;6.00;;;5.70;;
81209;SDS011;70685;52.496;13.420;2023-06-22T15:40:13;6.35;;;3.63;;
81209;SDS011;70685;52.496;13.420;2023-06-22T15:42:39;4.22;;;4.00;;
81209;SDS011;70685;52.496;13.420;2023-06-22T15:45:07;4.82;;;4.50;;
81209;SDS011;70685;52.496;13.420;2023-06-22T15:47:33;4.40;;;4.10;;
81209;SDS011;70685;52.496;13.420;2023-06-22T15:49:59;6.03;;;4.45;;
81209;SDS011;70685;52.496;13.420;2023-06-22T15:52:24;4.45;;;4.15;;
81209;SDS011;70685;52.496;13.420;2023-06-22T15:54:55;4.60;;;4.25;;
81209;SDS011;70685;52.496;13.420;2023-06-22T15:57:22;4.20;;;4.00;;
81209;SDS011;70685;52.496;13.420;2023-06-22T16:02:19;4.80;;;4.40;;
81209;SDS011;70685;52.496;13.420;2023-06-22T16:04:51;6.57;;;6.07;;
81209;SDS011;70685;52.496;13.420;2023-06-22T16:07:20;6.07;;;5.57;;
81209;SDS011;70685;52.496;13.420;2023-06-22T16:09:49;5.93;;;5.50;;
81209;SDS011;70685;52.496;13.420;2023-06-22T16:12:14;5.63;;;5.22;;
81209;SDS011;70685;52.496;13.420;2023-06-22T16:14:40;5.35;;;4.63;;
81209;SDS011;70685;52.496;13.420;2023-06-22T16:17:11;4.97;;;4.60;;
81209;SDS011;70685;52.496;13.420;2023-06-22T16:19:36;4.80;;;4.47;;
81209;SDS011;70685;52.496;13.420;2023-06-22T16:22:02;6.13;;;5.28;;
81209;SDS011;70685;52.496;13.420;2023-06-22T16:24:28;7.57;;;5.15;;
81209;SDS011;70685;52.496;13.420;2023-06-22T16:26:53;6.30;;;5.70;;
81209;SDS011;70685;52.496;13.420;2023-06-22T16:29:19;5.00;;;4.60;;
81209;SDS011;70685;52.496;13.420;2023-06-22T16:31:47;6.05;;;4.78;;
81209;SDS011;70685;52.496;13.420;2023-06-22T16:34:15;6.78;;;5.10;;
81209;SDS011;70685;52.496;13.420;2023-06-22T16:36:41;4.90;;;4.60;;
81209;SDS011;70685;52.496;13.420;2023-06-22T16:39:09;5.22;;;4.05;;
81209;SDS011;70685;52.496;13.420;2023-06-22T16:41:35;11.73;;;4.97;;
81209;SDS011;70685;52.496;13.420;2023-06-22T16:44:00;6.40;;;5.90;;
81209;SDS011;70685;52.496;13.420;2023-06-22T16:46:31;6.70;;;5.57;;
81209;SDS011;70685;52.496;13.420;2023-06-22T16:48:57;6.47;;;5.88;;
81209;SDS011;70685;52.496;13.420;2023-06-22T16:51:22;4.90;;;4.60;;
81209;SDS011;70685;52.496;13.420;2023-06-22T16:53:52;8.50;;;6.45;;
81209;SDS011;70685;52.496;13.420;2023-06-22T16:56:23;5.50;;;5.00;;
81209;SDS011;70685;52.496;13.420;2023-06-22T16:58:52;6.90;;;5.57;;
81209;SDS011;70685;52.496;13.420;2023-06-22T17:01:19;4.90;;;4.45;;
81209;SDS011;70685;52.496;13.420;2023-06-22T17:03:48;5.43;;;5.13;;
81209;SDS011;70685;52.496;13.420;2023-06-22T17:06:41;8.52;;;5.15;;
81209;SDS011;70685;52.496;13.420;2023-06-22T17:09:10;5.03;;;4.63;;
81209;SDS011;70685;52.496;13.420;2023-06-22T17:11:39;4.28;;;3.97;;
81209;SDS011;70685;52.496;13.420;2023-06-22T17:14:06;5.32;;;4.60;;
81209;SDS011;70685;52.496;13.420;2023-06-22T17:16:31;5.57;;;5.07;;
81209;SDS011;70685;52.496;13.420;2023-06-22T17:21:30;5.40;;;5.00;;
81209;SDS011;70685;52.496;13.420;2023-06-22T17:23:59;5.63;;;5.13;;
81209;SDS011;70685;52.496;13.420;2023-06-22T17:26:26;5.38;;;5.07;;
81209;SDS011;70685;52.496;13.420;2023-06-22T17:28:53;5.88;;;5.38;;
81209;SDS011;70685;52.496;13.420;2023-06-22T17:31:25;5.47;;;4.93;;
81209;SDS011;70685;52.496;13.420;2023-06-22T17:34:06;5.22;;;4.47;;
81209;SDS011;70685;52.496;13.420;2023-06-22T17:39:16;4.95;;;4.60;;
81209;SDS011;70685;52.496;13.420;2023-06-22T17:41:43;7.07;;;5.32;;
81209;SDS011;70685;52.496;13.420;2023-06-22T18:06:38;5.68;;;5.35;;
81209;SDS011;70685;52.496;13.420;2023-06-22T18:09:08;5.78;;;4.85;;
81209;SDS011;70685;52.496;13.420;2023-06-22T18:11:44;5.25;;;4.85;;
81209;SDS011;70685;52.496;13.420;2023-06-22T18:14:15;6.07;;;5.68;;
81209;SDS011;70685;52.496;13.420;2023-06-22T18:16:46;5.30;;;4.82;;
81209;SDS011;70685;52.496;13.420;2023-06-22T18:19:15;5.40;;;5.10;;
81209;SDS011;70685;52.496;13.420;2023-06-22T18:21:44;5.57;;;5.15;;
81209;SDS011;70685;52.496;13.420;2023-06-22T18:24:12;5.15;;;4.68;;
81209;SDS011;70685;52.496;13.420;2023-06-22T18:26:42;5.63;;;5.22;;
81209;SDS011;70685;52.496;13.420;2023-06-22T18:29:09;5.70;;;5.40;;
81209;SDS011;70685;52.496;13.420;2023-06-22T18:31:40;5.18;;;4.68;;
81209;SDS011;70685;52.496;13.420;2023-06-22T18:34:08;5.30;;;4.82;;
81209;SDS011;70685;52.496;13.420;2023-06-22T18:39:07;6.55;;;5.90;;
81209;SDS011;70685;52.496;13.420;2023-06-22T18:44:02;4.80;;;4.57;;
81209;SDS011;70685;52.496;13.420;2023-06-22T18:46:36;4.30;;;4.00;;
81209;SDS011;70685;52.496;13.420;2023-06-22T18:49:08;5.95;;;5.45;;
81209;SDS011;70685;52.496;13.420;2023-06-22T18:54:39;5.60;;;5.07;;
81209;SDS011;70685;52.496;13.420;2023-06-22T19:12:50;4.85;;;4.57;;
81209;SDS011;70685;52.496;13.420;2023-06-22T19:15:18;5.05;;;4.60;;
81209;SDS011;70685;52.496;13.420;2023-06-22T19:17:48;5.07;;;4.63;;
81209;SDS011;70685;52.496;13.420;2023-06-22T19:20:19;5.30;;;4.90;;
81209;SDS011;70685;52.496;13.420;2023-06-22T19:22:56;5.18;;;4.88;;
81209;SDS011;70685;52.496;13.420;2023-06-22T19:25:25;5.30;;;4.83;;
81209;SDS011;70685;52.496;13.420;2023-06-22T19:27:53;4.75;;;4.40;;
81209;SDS011;70685;52.496;13.420;2023-06-22T19:30:24;7.97;;;5.90;;
81209;SDS011;70685;52.496;13.420;2023-06-22T19:32:52;5.82;;;5.53;;
81209;SDS011;70685;52.496;13.420;2023-06-22T19:35:20;5.20;;;4.88;;
81209;SDS011;70685;52.496;13.420;2023-06-22T19:37:46;9.25;;;4.53;;
81209;SDS011;70685;52.496;13.420;2023-06-22T19:42:44;4.65;;;4.35;;
81209;SDS011;70685;52.496;13.420;2023-06-22T19:45:14;4.45;;;4.13;;
81209;SDS011;70685;52.496;13.420;2023-06-22T19:47:42;7.68;;;5.13;;
81209;SDS011;70685;52.496;13.420;2023-06-22T19:50:09;5.43;;;4.47;;
81209;SDS011;70685;52.496;13.420;2023-06-22T19:52:42;5.75;;;5.25;;
81209;SDS011;70685;52.496;13.420;2023-06-22T19:55:13;6.05;;;5.55;;
81209;SDS011;70685;52.496;13.420;2023-06-22T19:57:41;4.82;;;4.45;;
81209;SDS011;70685;52.496;13.420;2023-06-22T20:00:12;4.53;;;4.32;;
81209;SDS011;70685;52.496;13.420;2023-06-22T20:02:42;5.25;;;4.82;;
81209;SDS011;70685;52.496;13.420;2023-06-22T20:05:14;5.55;;;5.10;;
81209;SDS011;70685;52.496;13.420;2023-06-22T20:07:40;6.97;;;5.30;;
81209;SDS011;70685;52.496;13.420;2023-06-22T20:10:18;5.32;;;4.85;;
81209;SDS011;70685;52.496;13.420;2023-06-22T20:12:48;6.65;;;6.00;;
81209;SDS011;70685;52.496;13.420;2023-06-22T20:15:25;7.38;;;4.55;;
81209;SDS011;70685;52.496;13.420;2023-06-22T20:18:10;8.82;;;4.22;;
81209;SDS011;70685;52.496;13.420;2023-06-22T20:20:38;8.90;;;6.75;;
81209;SDS011;70685;52.496;13.420;2023-06-22T20:23:21;5.18;;;4.82;;
81209;SDS011;70685;52.496;13.420;2023-06-22T20:25:52;5.22;;;4.82;;
81209;SDS011;70685;52.496;13.420;2023-06-22T20:28:21;7.03;;;4.80;;
81209;SDS011;70685;52.496;13.420;2023-06-22T20:33:37;6.00;;;5.50;;
81209;SDS011;70685;52.496;13.420;2023-06-22T20:36:07;5.78;;;5.28;;
81209;SDS011;70685;52.496;13.420;2023-06-22T20:38:36;5.38;;;5.07;;
81209;SDS011;70685;52.496;13.420;2023-06-22T20:41:05;9.98;;;5.90;;
81209;SDS011;70685;52.496;13.420;2023-06-22T20:43:31;10.82;;;6.57;;
81209;SDS011;70685;52.496;13.420;2023-06-22T20:45:57;12.45;;;8.75;;
81209;SDS011;70685;52.496;13.420;2023-06-22T20:48:25;17.38;;;9.60;;
81209;SDS011;70685;52.496;13.420;2023-06-22T20:50:51;13.10;;;9.90;;
81209;SDS011;70685;52.496;13.420;2023-06-22T20:53:24;20.98;;;16.75;;
81209;SDS011;70685;52.496;13.420;2023-06-22T20:55:50;23.08;;;14.52;;
81209;SDS011;70685;52.496;13.420;2023-06-22T20:58:17;30.48;;;15.95;;
81209;SDS011;70685;52.496;13.420;2023-06-22T21:00:43;16.35;;;14.50;;
81209;SDS011;70685;52.496;13.420;2023-06-22T21:03:08;19.17;;;13.45;;
81209;SDS011;70685;52.496;13.420;2023-06-22T21:05:54;23.02;;;14.80;;
81209;SDS011;70685;52.496;13.420;2023-06-22T21:08:22;20.08;;;16.27;;
81209;SDS011;70685;52.496;13.420;2023-06-22T21:10:48;13.75;;;12.32;;
81209;SDS011;70685;52.496;13.420;2023-06-22T21:13:16;12.25;;;10.90;;
81209;SDS011;70685;52.496;13.420;2023-06-22T21:15:42;13.07;;;11.80;;
81209;SDS011;70685;52.496;13.420;2023-06-22T21:18:11;22.60;;;16.38;;
81209;SDS011;70685;52.496;13.420;2023-06-22T21:20:39;13.90;;;11.43;;
81209;SDS011;70685;52.496;13.420;2023-06-22T21:23:06;16.27;;;13.85;;
81209;SDS011;70685;52.496;13.420;2023-06-22T21:25:32;15.05;;;11.48;;
81209;SDS011;70685;52.496;13.420;2023-06-22T21:27:58;16.83;;;15.10;;
81209;SDS011;70685;52.496;13.420;2023-06-22T21:30:24;18.30;;;16.45;;
81209;SDS011;70685;52.496;13.420;2023-06-22T21:32:50;15.63;;;12.88;;
81209;SDS011;70685;52.496;13.420;2023-06-22T21:35:16;12.70;;;11.45;;
81209;SDS011;70685;52.496;13.420;2023-06-22T21:37:46;13.50;;;11.82;;
81209;SDS011;70685;52.496;13.420;2023-06-22T21:40:14;14.40;;;12.20;;
81209;SDS011;70685;52.496;13.420;2023-06-22T21:42:40;26.50;;;11.68;;
81209;SDS011;70685;52.496;13.420;2023-06-22T21:45:08;11.75;;;10.68;;
81209;SDS011;70685;52.496;13.420;2023-06-22T21:47:34;13.65;;;11.82;;
81209;SDS011;70685;52.496;13.420;2023-06-22T21:50:00;13.93;;;12.38;;
81209;SDS011;70685;52.496;13.420;2023-06-22T21:52:31;24.70;;;13.68;;
81209;SDS011;70685;52.496;13.420;2023-06-22T21:54:57;20.50;;;15.15;;
81209;SDS011;70685;52.496;13.420;2023-06-22T21:57:27;25.55;;;16.00;;
81209;SDS011;70685;52.496;13.420;2023-06-22T21:59:53;16.08;;;13.18;;
81209;SDS011;70685;52.496;13.420;2023-06-22T22:02:21;20.23;;;14.73;;
81209;SDS011;70685;52.496;13.420;2023-06-22T22:04:53;16.38;;;14.90;;
81209;SDS011;70685;52.496;13.420;2023-06-22T22:07:21;19.33;;;16.55;;
81209;SDS011;70685;52.496;13.420;2023-06-22T22:09:47;19.92;;;17.83;;
81209;SDS011;70685;52.496;13.420;2023-06-22T22:12:12;23.52;;;18.70;;
81209;SDS011;70685;52.496;13.420;2023-06-22T22:14:43;25.83;;;17.02;;
81209;SDS011;70685;52.496;13.420;2023-06-22T22:17:10;16.17;;;14.43;;
81209;SDS011;70685;52.496;13.420;2023-06-22T22:19:38;17.23;;;15.10;;
81209;SDS011;70685;52.496;13.420;2023-06-22T22:22:09;25.07;;;15.37;;
81209;SDS011;70685;52.496;13.420;2023-06-22T22:24:35;21.42;;;16.77;;
81209;SDS011;70685;52.496;13.420;2023-06-22T22:27:00;18.52;;;16.65;;
81209;SDS011;70685;52.496;13.420;2023-06-22T22:29:28;17.90;;;16.35;;
81209;SDS011;70685;52.496;13.420;2023-06-22T22:31:57;17.23;;;15.52;;
81209;SDS011;70685;52.496;13.420;2023-06-22T22:34:25;17.55;;;15.75;;
81209;SDS011;70685;52.496;13.420;2023-06-22T22:36:53;19.85;;;16.73;;
81209;SDS011;70685;52.496;13.420;2023-06-22T22:39:28;33.92;;;18.05;;
81209;SDS011;70685;52.496;13.420;2023-06-22T22:41:55;23.08;;;17.58;;
81209;SDS011;70685;52.496;13.420;2023-06-22T22:44:21;17.35;;;15.75;;
81209;SDS011;70685;52.496;13.420;2023-06-22T22:46:47;16.67;;;15.05;;
81209;SDS011;70685;52.496;13.420;2023-06-22T22:49:15;16.92;;;14.13;;
81209;SDS011;70685;52.496;13.420;2023-06-22T22:51:41;13.32;;;12.13;;
81209;SDS011;70685;52.496;13.420;2023-06-22T22:54:08;13.32;;;12.30;;
81209;SDS011;70685;52.496;13.420;2023-06-22T22:56:37;16.30;;;13.03;;
81209;SDS011;70685;52.496;13.420;2023-06-22T22:59:02;14.32;;;13.23;;
81209;SDS011;70685;52.496;13.420;2023-06-22T23:01:29;16.08;;;13.57;;
81209;SDS011;70685;52.496;13.420;2023-06-22T23:03:55;14.48;;;13.07;;
81209;SDS011;70685;52.496;13.420;2023-06-22T23:06:25;14.27;;;12.90;;
81209;SDS011;70685;52.496;13.420;2023-06-22T23:08:51;13.88;;;12.65;;
81209;SDS011;70685;52.496;13.420;2023-06-22T23:11:26;13.38;;;12.07;;
81209;SDS011;70685;52.496;13.420;2023-06-22T23:13:56;12.98;;;12.00;;
81209;SDS011;70685;52.496;13.420;2023-06-22T23:18:47;15.43;;;12.13;;
81209;SDS011;70685;52.496;13.420;2023-06-22T23:21:13;12.38;;;11.18;;
81209;SDS011;70685;52.496;13.420;2023-06-22T23:23:39;12.13;;;11.18;;
81209;SDS011;70685;52.496;13.420;2023-06-22T23:26:05;13.00;;;11.75;;
81209;SDS011;70685;52.496;13.420;2023-06-22T23:28:30;11.73;;;10.57;;
81209;SDS011;70685;52.496;13.420;2023-06-22T23:30:56;12.07;;;10.93;;
81209;SDS011;70685;52.496;13.420;2023-06-22T23:33:24;13.07;;;11.68;;
81209;SDS011;70685;52.496;13.420;2023-06-22T23:35:52;13.48;;;10.90;;
81209;SDS011;70685;52.496;13.420;2023-06-22T23:38:18;12.98;;;11.60;;
81209;SDS011;70685;52.496;13.420;2023-06-22T23:40:46;12.57;;;11.13;;
81209;SDS011;70685;52.496;13.420;2023-06-22T23:43:12;12.00;;;11.00;;
81209;SDS011;70685;52.496;13.420;2023-06-22T23:45:44;10.25;;;9.35;;
81209;SDS011;70685;52.496;13.420;2023-06-22T23:48:11;10.93;;;10.02;;
81209;SDS011;70685;52.496;13.420;2023-06-22T23:50:36;11.77;;;10.88;;
81209;SDS011;70685;52.496;13.420;2023-06-22T23:53:05;12.38;;;11.32;;
81209;SDS011;70685;52.496;13.420;2023-06-22T23:55:33;11.67;;;10.57;;
81209;SDS011;70685;52.496;13.420;2023-06-22T23:57:59;12.27;;;10.80;;
